createdAt,value
2023-01-17T00:54:43.442Z,500.00
2023-01-17T00:55:44.406Z,500.00
2023-01-17T00:56:44.395Z,500.00
2023-01-17T00:57:44.389Z,500.00
2023-01-17T00:58:44.386Z,500.00
2023-01-17T00:59:44.375Z,500.00
2023-01-17T01:00:44.403Z,470.00
2023-01-17T01:01:44.547Z,471.00
2023-01-17T01:02:44.397Z,488.00
2023-01-17T01:03:44.331Z,503.00
2023-01-17T01:04:44.333Z,500.00
2023-01-17T01:05:44.328Z,500.00
2023-01-17T01:06:44.306Z,501.00
2023-01-17T01:07:44.295Z,498.00
2023-01-17T01:08:44.287Z,501.00
2023-01-17T01:09:44.281Z,500.00
2023-01-17T01:10:44.299Z,500.00
2023-01-17T01:11:44.264Z,500.00
2023-01-17T01:12:44.251Z,502.00
2023-01-17T01:13:44.253Z,501.00
2023-01-17T01:14:44.237Z,501.00
2023-01-17T01:15:44.227Z,502.00
2023-01-17T01:16:44.214Z,501.00
2023-01-17T01:17:44.204Z,501.00
2023-01-17T01:18:44.199Z,504.00
2023-01-17T01:19:44.191Z,506.00
2023-01-17T01:20:44.186Z,500.00
2023-01-17T01:21:44.178Z,501.00
2023-01-17T01:22:44.165Z,502.00
2023-01-17T01:23:44.145Z,501.00
2023-01-17T01:24:44.139Z,500.00
2023-01-17T01:25:44.129Z,500.00
2023-01-17T01:26:44.150Z,506.00
2023-01-17T01:27:44.115Z,505.00
2023-01-17T01:28:44.106Z,506.00
2023-01-17T01:29:44.105Z,504.00
2023-01-17T01:30:44.088Z,503.00
2023-01-17T01:31:44.143Z,503.00
2023-01-17T01:32:44.065Z,507.00
2023-01-17T01:33:44.067Z,505.00
2023-01-17T01:34:44.053Z,506.00
2023-01-17T01:35:44.042Z,506.00
2023-01-17T01:36:44.038Z,506.00
2023-01-17T01:37:44.021Z,503.00
2023-01-17T01:38:44.013Z,506.00
2023-01-17T01:39:44.002Z,503.00
2023-01-17T01:40:43.995Z,503.00
2023-01-17T01:41:43.986Z,502.00
2023-01-17T01:42:44.011Z,508.00
2023-01-17T01:43:43.973Z,503.00
2023-01-17T01:44:43.957Z,506.00
2023-01-17T01:45:43.974Z,508.00
2023-01-17T01:46:43.933Z,512.00
2023-01-17T01:47:43.929Z,507.00
2023-01-17T01:48:43.926Z,509.00
2023-01-17T01:49:43.915Z,509.00
2023-01-17T01:50:43.903Z,507.00
2023-01-17T01:51:43.915Z,507.00
2023-01-17T01:52:43.887Z,512.00
2023-01-17T01:53:43.875Z,511.00
2023-01-17T04:54:42.221Z,551.00
2023-01-17T04:58:42.164Z,557.00
2023-01-17T06:08:41.514Z,568.00
2023-01-17T06:23:41.369Z,529.00
2023-01-17T06:30:41.327Z,519.00
2023-01-17T06:41:41.210Z,505.00
2023-01-17T06:54:41.612Z,515.00
2023-01-17T06:56:41.537Z,535.00
2023-01-17T06:59:41.377Z,551.00
2023-01-17T07:06:44.173Z,538.00
2023-01-17T07:08:40.984Z,539.00
2023-01-17T07:11:40.941Z,560.00
2023-01-17T07:45:40.631Z,586.00
2023-01-17T07:48:40.633Z,581.00
2023-01-17T07:53:40.633Z,582.00
2023-01-17T08:07:40.423Z,571.00
2023-01-17T08:08:40.414Z,568.00
2023-01-17T08:09:40.391Z,564.00
2023-01-17T08:11:40.372Z,562.00
2023-01-17T08:12:40.374Z,564.00
2023-01-17T08:13:40.368Z,564.00
2023-01-17T08:14:40.352Z,566.00
2023-01-17T08:16:40.451Z,560.00
2023-01-17T08:17:40.319Z,558.00
2023-01-17T08:18:40.316Z,556.00
2023-01-17T08:19:40.303Z,561.00
2023-01-17T08:21:40.294Z,562.00
2023-01-17T08:22:40.308Z,552.00
2023-01-17T08:23:40.276Z,550.00
2023-01-17T08:24:40.264Z,552.00
2023-01-17T08:26:40.240Z,551.00
2023-01-17T08:39:40.277Z,831.00
2023-01-17T08:40:40.270Z,828.00
2023-01-17T08:43:41.231Z,887.00
2023-01-17T08:44:40.237Z,921.00
2023-01-17T08:45:40.283Z,917.00
2023-01-17T08:51:40.191Z,1004.00
2023-01-17T08:53:40.238Z,990.00
2023-01-17T08:54:40.291Z,1015.00
2023-01-17T08:55:41.150Z,1012.00
2023-01-17T08:56:40.375Z,1005.00
2023-01-17T08:57:40.272Z,985.00
2023-01-17T08:58:40.247Z,969.00
2023-01-17T08:59:40.241Z,940.00
2023-01-17T09:31:40.434Z,1036.00
2023-01-17T09:34:40.015Z,1026.00
2023-01-17T09:41:41.206Z,922.00
2023-01-17T09:46:41.237Z,818.00
2023-01-17T09:51:39.732Z,659.00
2023-01-17T10:53:39.222Z,804.00
2023-01-17T10:54:39.337Z,823.00
2023-01-17T10:57:39.208Z,795.00
2023-01-17T11:39:39.205Z,654.00
2023-01-17T11:44:38.716Z,643.00
2023-01-17T11:46:38.811Z,640.00
2023-01-17T12:35:38.222Z,559.00
2023-01-17T12:38:38.269Z,590.00
2023-01-17T12:39:38.224Z,598.00
2023-01-17T12:44:38.230Z,648.00
2023-01-17T12:45:38.240Z,641.00
2023-01-17T13:31:37.795Z,612.00
2023-01-17T13:36:37.745Z,618.00
2023-01-17T14:27:39.269Z,556.00
2023-01-17T14:31:37.302Z,558.00
2023-01-17T15:22:35.677Z,527.00
2023-01-17T15:23:36.774Z,528.00
2023-01-17T15:25:36.653Z,523.00
2023-01-17T16:08:38.460Z,511.00
2023-01-17T16:14:53.523Z,506.00
2023-01-17T16:24:36.138Z,517.00
2023-01-17T18:11:35.128Z,606.00
2023-01-17T18:34:34.933Z,614.00
2023-01-17T20:18:33.954Z,626.00
2023-01-17T21:15:33.429Z,647.00
2023-01-17T21:18:33.407Z,643.00
2023-01-17T21:19:33.398Z,647.00
2023-01-17T21:20:33.392Z,645.00
2023-01-17T21:21:33.386Z,648.00
2023-01-17T21:22:33.361Z,648.00
2023-01-17T21:23:33.356Z,645.00
2023-01-17T21:24:33.349Z,648.00
2023-01-17T21:25:33.336Z,651.00
2023-01-17T21:26:33.354Z,650.00
2023-01-17T21:27:33.319Z,649.00
2023-01-17T21:28:33.316Z,644.00
2023-01-17T21:30:33.288Z,649.00
2023-01-17T21:31:33.283Z,650.00
2023-01-17T21:32:33.276Z,651.00
2023-01-17T21:33:33.262Z,651.00
2023-01-17T21:34:33.263Z,654.00
2023-01-17T21:35:33.243Z,655.00
2023-01-17T21:36:33.270Z,652.00
2023-01-17T21:37:33.231Z,654.00
2023-01-17T21:38:33.215Z,654.00
2023-01-17T21:39:33.223Z,654.00
2023-01-17T21:40:33.219Z,650.00
2023-01-17T21:41:33.190Z,654.00
2023-01-17T21:42:33.202Z,658.00
2023-01-17T21:43:33.175Z,657.00
2023-01-17T21:44:33.160Z,656.00
2023-01-17T21:45:33.159Z,653.00
2023-01-17T21:46:33.144Z,655.00
2023-01-17T21:47:33.133Z,653.00
2023-01-17T21:48:33.122Z,650.00
2023-01-17T21:49:33.120Z,656.00
2023-01-17T21:50:33.818Z,652.00
2023-01-17T21:51:33.126Z,653.00
2023-01-17T21:52:33.089Z,659.00
2023-01-17T21:53:33.084Z,656.00
2023-01-17T21:54:33.068Z,656.00
2023-01-17T21:55:33.069Z,658.00
2023-01-17T21:56:33.057Z,657.00
2023-01-17T21:57:33.041Z,659.00
2023-01-17T21:58:33.068Z,665.00
2023-01-17T21:59:33.021Z,661.00
2023-01-17T22:00:33.013Z,663.00
2023-01-17T22:01:33.254Z,666.00
2023-01-17T22:02:33.085Z,664.00
2023-01-17T22:03:32.992Z,663.00
2023-01-17T22:04:32.975Z,670.00
2023-01-17T22:05:32.971Z,662.00
2023-01-17T22:06:32.959Z,665.00
2023-01-17T22:07:32.950Z,664.00
2023-01-17T22:08:32.943Z,666.00
2023-01-17T22:09:32.962Z,665.00
2023-01-17T22:10:32.935Z,671.00
2023-01-17T22:11:32.916Z,678.00
2023-01-17T22:12:32.912Z,680.00
2023-01-17T22:13:32.898Z,666.00
2023-01-17T22:14:32.913Z,671.00
2023-01-17T22:15:32.946Z,680.00
2023-01-17T22:16:32.869Z,690.00
2023-01-17T22:17:32.858Z,682.00
2023-01-17T22:18:32.883Z,690.00
2023-01-17T22:19:32.843Z,697.00
2023-01-17T22:20:32.834Z,678.00
2023-01-17T22:21:32.827Z,684.00
2023-01-17T22:22:32.817Z,698.00
2023-01-17T22:24:32.793Z,706.00
2023-01-17T22:25:32.784Z,704.00
2023-01-17T22:26:32.777Z,695.00
2023-01-17T22:27:32.771Z,692.00
2023-01-17T22:28:32.755Z,709.00
2023-01-17T22:29:32.753Z,697.00
2023-01-17T22:30:32.763Z,698.00
2023-01-17T22:31:32.729Z,708.00
2023-01-17T22:32:32.719Z,701.00
2023-01-17T22:33:32.711Z,705.00
2023-01-17T22:34:32.712Z,714.00
2023-01-17T22:35:32.704Z,707.00
2023-01-17T22:36:32.687Z,710.00
2023-01-17T22:37:32.677Z,706.00
2023-01-17T22:38:32.674Z,707.00
2023-01-17T22:39:32.663Z,722.00
2023-01-17T22:40:32.652Z,712.00
2023-01-17T22:41:32.638Z,707.00
2023-01-17T22:42:32.635Z,718.00
2023-01-17T22:43:32.617Z,732.00
2023-01-17T22:44:32.616Z,731.00
2023-01-17T22:45:32.601Z,727.00
2023-01-17T22:46:32.793Z,721.00
2023-01-17T22:47:32.581Z,720.00
2023-01-17T22:48:32.573Z,729.00
2023-01-17T22:49:32.579Z,721.00
2023-01-17T22:50:32.556Z,727.00
2023-01-17T22:51:32.551Z,717.00
2023-01-17T22:52:32.537Z,739.00
2023-01-17T22:53:32.527Z,731.00
2023-01-17T22:54:32.517Z,726.00
2023-01-17T22:55:32.514Z,718.00
2023-01-17T22:56:32.532Z,717.00
2023-01-17T22:57:32.494Z,735.00
2023-01-17T22:58:32.479Z,738.00
2023-01-17T22:59:32.479Z,730.00
2023-01-17T23:00:32.464Z,733.00
2023-01-17T23:01:32.472Z,738.00
2023-01-17T23:02:32.499Z,739.00
2023-01-17T23:03:32.478Z,725.00
2023-01-17T23:04:32.429Z,731.00
2023-01-17T23:05:32.433Z,741.00
2023-01-17T23:06:32.411Z,737.00
2023-01-17T23:07:32.412Z,745.00
2023-01-17T23:08:32.391Z,736.00
2023-01-17T23:09:32.385Z,742.00
2023-01-17T23:10:32.375Z,744.00
2023-01-17T23:11:32.363Z,728.00
2023-01-17T23:12:32.356Z,737.00
2023-01-17T23:13:32.340Z,741.00
2023-01-17T23:14:32.336Z,743.00
2023-01-17T23:15:32.328Z,729.00
2023-01-17T23:16:32.315Z,739.00
2023-01-17T23:17:32.313Z,737.00
2023-01-17T23:18:32.341Z,751.00
2023-01-17T23:19:32.286Z,742.00
2023-01-17T23:20:32.276Z,752.00
2023-01-17T23:21:32.276Z,747.00
2023-01-17T23:22:32.271Z,741.00
2023-01-17T23:23:32.262Z,764.00
2023-01-17T23:24:32.262Z,746.00
2023-01-17T23:25:32.237Z,749.00
2023-01-17T23:26:32.231Z,765.00
2023-01-17T23:27:32.218Z,757.00
2023-01-17T23:28:32.208Z,766.00
2023-01-17T23:29:32.195Z,760.00
2023-01-17T23:30:32.199Z,765.00
2023-01-17T23:31:32.240Z,764.00
2023-01-17T23:32:32.174Z,756.00
2023-01-17T23:33:32.163Z,768.00
2023-01-17T23:34:32.182Z,757.00
2023-01-17T23:35:32.152Z,756.00
2023-01-17T23:36:32.140Z,759.00
2023-01-17T23:37:32.125Z,762.00
2023-01-17T23:38:32.116Z,768.00
2023-01-17T23:39:32.114Z,766.00
2023-01-17T23:40:32.155Z,767.00
2023-01-17T23:41:32.089Z,780.00
2023-01-17T23:42:32.085Z,779.00
2023-01-17T23:43:32.083Z,764.00
2023-01-17T23:44:32.105Z,769.00
2023-01-17T23:45:32.061Z,774.00
2023-01-17T23:46:32.113Z,787.00
2023-01-17T23:47:32.061Z,786.00
2023-01-17T23:48:32.025Z,787.00
2023-01-17T23:49:32.073Z,780.00
2023-01-17T23:50:32.037Z,775.00
2023-01-17T23:51:32.059Z,778.00
2023-01-17T23:52:31.988Z,788.00
2023-01-17T23:53:31.982Z,771.00
2023-01-17T23:54:32.000Z,791.00
2023-01-17T23:55:31.965Z,786.00
2023-01-17T23:56:31.963Z,785.00
2023-01-17T23:58:31.929Z,788.00
2023-01-17T23:59:31.928Z,782.00
